sensor_id;sensor_type;location;lat;lon;timestamp;P1;durP1;ratioP1;P2;durP2;ratioP2
15958;SDS011;8078;47.822;9.402;2024-01-15T00:02:17;19.13;;;9.13;;
15958;SDS011;8078;47.822;9.402;2024-01-15T00:04:43;16.20;;;8.97;;
15958;SDS011;8078;47.822;9.402;2024-01-15T00:07:08;15.77;;;9.10;;
15958;SDS011;8078;47.822;9.402;2024-01-15T00:09:34;12.53;;;7.40;;
15958;SDS011;8078;47.822;9.402;2024-01-15T00:12:00;16.23;;;9.73;;
15958;SDS011;8078;47.822;9.402;2024-01-15T00:14:26;15.47;;;9.70;;
15958;SDS011;8078;47.822;9.402;2024-01-15T00:16:52;15.07;;;10.97;;
15958;SDS011;8078;47.822;9.402;2024-01-15T00:19:20;13.73;;;9.30;;
15958;SDS011;8078;47.822;9.402;2024-01-15T00:21:46;15.77;;;9.17;;
15958;SDS011;8078;47.822;9.402;2024-01-15T00:24:12;12.57;;;9.87;;
15958;SDS011;8078;47.822;9.402;2024-01-15T00:26:37;10.40;;;7.27;;
15958;SDS011;8078;47.822;9.402;2024-01-15T00:29:03;14.47;;;7.07;;
15958;SDS011;8078;47.822;9.402;2024-01-15T00:31:29;14.90;;;10.03;;
15958;SDS011;8078;47.822;9.402;2024-01-15T00:33:55;13.43;;;7.80;;
15958;SDS011;8078;47.822;9.402;2024-01-15T00:36:21;14.37;;;8.17;;
15958;SDS011;8078;47.822;9.402;2024-01-15T00:38:47;12.70;;;7.97;;
15958;SDS011;8078;47.822;9.402;2024-01-15T00:41:13;14.90;;;7.77;;
15958;SDS011;8078;47.822;9.402;2024-01-15T00:43:39;12.73;;;7.83;;
15958;SDS011;8078;47.822;9.402;2024-01-15T00:46:04;14.23;;;8.27;;
15958;SDS011;8078;47.822;9.402;2024-01-15T00:48:30;13.27;;;7.93;;
15958;SDS011;8078;47.822;9.402;2024-01-15T00:50:56;12.13;;;7.90;;
15958;SDS011;8078;47.822;9.402;2024-01-15T00:53:22;15.53;;;8.20;;
15958;SDS011;8078;47.822;9.402;2024-01-15T00:55:50;14.50;;;6.90;;
15958;SDS011;8078;47.822;9.402;2024-01-15T00:58:16;12.43;;;7.23;;
15958;SDS011;8078;47.822;9.402;2024-01-15T01:00:41;12.80;;;7.10;;
15958;SDS011;8078;47.822;9.402;2024-01-15T01:03:07;15.77;;;7.30;;
15958;SDS011;8078;47.822;9.402;2024-01-15T01:05:33;12.47;;;7.00;;
15958;SDS011;8078;47.822;9.402;2024-01-15T01:07:59;13.13;;;7.13;;
15958;SDS011;8078;47.822;9.402;2024-01-15T01:10:25;11.10;;;6.50;;
15958;SDS011;8078;47.822;9.402;2024-01-15T01:12:51;9.17;;;5.80;;
15958;SDS011;8078;47.822;9.402;2024-01-15T01:15:17;13.63;;;7.70;;
15958;SDS011;8078;47.822;9.402;2024-01-15T01:17:42;10.30;;;6.40;;
15958;SDS011;8078;47.822;9.402;2024-01-15T01:20:08;11.53;;;7.37;;
15958;SDS011;8078;47.822;9.402;2024-01-15T01:22:35;13.57;;;7.23;;
15958;SDS011;8078;47.822;9.402;2024-01-15T01:25:01;11.90;;;7.13;;
15958;SDS011;8078;47.822;9.402;2024-01-15T01:27:27;13.97;;;7.40;;
15958;SDS011;8078;47.822;9.402;2024-01-15T01:29:52;13.90;;;6.57;;
15958;SDS011;8078;47.822;9.402;2024-01-15T01:32:18;14.57;;;7.70;;
15958;SDS011;8078;47.822;9.402;2024-01-15T01:34:44;12.53;;;7.20;;
15958;SDS011;8078;47.822;9.402;2024-01-15T01:37:10;10.60;;;6.90;;
15958;SDS011;8078;47.822;9.402;2024-01-15T01:39:39;19.17;;;7.03;;
15958;SDS011;8078;47.822;9.402;2024-01-15T01:42:05;15.67;;;7.70;;
15958;SDS011;8078;47.822;9.402;2024-01-15T01:44:30;13.13;;;7.03;;
15958;SDS011;8078;47.822;9.402;2024-01-15T01:46:57;13.70;;;7.73;;
15958;SDS011;8078;47.822;9.402;2024-01-15T01:49:23;12.70;;;7.47;;
15958;SDS011;8078;47.822;9.402;2024-01-15T01:51:51;15.67;;;8.53;;
15958;SDS011;8078;47.822;9.402;2024-01-15T01:54:16;14.57;;;8.27;;
15958;SDS011;8078;47.822;9.402;2024-01-15T01:56:44;18.87;;;9.23;;
15958;SDS011;8078;47.822;9.402;2024-01-15T01:59:10;16.63;;;8.33;;
15958;SDS011;8078;47.822;9.402;2024-01-15T02:01:36;20.23;;;9.57;;
15958;SDS011;8078;47.822;9.402;2024-01-15T02:04:03;18.33;;;9.57;;
15958;SDS011;8078;47.822;9.402;2024-01-15T02:06:29;17.60;;;9.07;;
15958;SDS011;8078;47.822;9.402;2024-01-15T02:08:55;15.70;;;9.43;;
15958;SDS011;8078;47.822;9.402;2024-01-15T02:11:21;17.93;;;9.87;;
15958;SDS011;8078;47.822;9.402;2024-01-15T02:13:46;22.83;;;10.00;;
15958;SDS011;8078;47.822;9.402;2024-01-15T02:16:12;19.73;;;9.30;;
15958;SDS011;8078;47.822;9.402;2024-01-15T02:18:41;19.43;;;9.07;;
15958;SDS011;8078;47.822;9.402;2024-01-15T02:21:08;15.00;;;6.77;;
15958;SDS011;8078;47.822;9.402;2024-01-15T02:23:34;15.87;;;8.23;;
15958;SDS011;8078;47.822;9.402;2024-01-15T02:26:00;12.63;;;7.33;;
15958;SDS011;8078;47.822;9.402;2024-01-15T02:28:26;14.33;;;6.87;;
15958;SDS011;8078;47.822;9.402;2024-01-15T02:30:52;14.67;;;8.40;;
15958;SDS011;8078;47.822;9.402;2024-01-15T02:33:17;15.73;;;7.87;;
15958;SDS011;8078;47.822;9.402;2024-01-15T02:35:43;15.63;;;7.33;;
15958;SDS011;8078;47.822;9.402;2024-01-15T02:38:08;12.87;;;7.50;;
15958;SDS011;8078;47.822;9.402;2024-01-15T02:40:34;13.27;;;7.83;;
15958;SDS011;8078;47.822;9.402;2024-01-15T02:43:00;14.20;;;6.90;;
15958;SDS011;8078;47.822;9.402;2024-01-15T02:45:26;12.77;;;7.40;;
15958;SDS011;8078;47.822;9.402;2024-01-15T02:47:52;13.10;;;7.20;;
15958;SDS011;8078;47.822;9.402;2024-01-15T02:50:18;11.30;;;6.67;;
15958;SDS011;8078;47.822;9.402;2024-01-15T02:52:43;15.30;;;6.70;;
15958;SDS011;8078;47.822;9.402;2024-01-15T02:55:09;13.30;;;7.00;;
15958;SDS011;8078;47.822;9.402;2024-01-15T02:57:34;15.47;;;7.17;;
15958;SDS011;8078;47.822;9.402;2024-01-15T03:00:00;12.63;;;6.53;;
15958;SDS011;8078;47.822;9.402;2024-01-15T03:02:26;11.83;;;5.93;;
15958;SDS011;8078;47.822;9.402;2024-01-15T03:04:51;10.13;;;5.67;;
15958;SDS011;8078;47.822;9.402;2024-01-15T03:07:17;13.20;;;6.60;;
15958;SDS011;8078;47.822;9.402;2024-01-15T03:09:43;13.17;;;7.13;;
15958;SDS011;8078;47.822;9.402;2024-01-15T03:12:09;10.70;;;5.57;;
15958;SDS011;8078;47.822;9.402;2024-01-15T03:14:37;11.53;;;5.53;;
15958;SDS011;8078;47.822;9.402;2024-01-15T03:17:03;11.63;;;5.37;;
15958;SDS011;8078;47.822;9.402;2024-01-15T03:19:29;12.67;;;6.47;;
15958;SDS011;8078;47.822;9.402;2024-01-15T03:21:55;11.63;;;5.30;;
15958;SDS011;8078;47.822;9.402;2024-01-15T03:24:21;7.90;;;5.30;;
15958;SDS011;8078;47.822;9.402;2024-01-15T03:26:47;13.43;;;5.77;;
15958;SDS011;8078;47.822;9.402;2024-01-15T03:29:12;11.03;;;5.40;;
15958;SDS011;8078;47.822;9.402;2024-01-15T03:31:38;13.50;;;5.70;;
15958;SDS011;8078;47.822;9.402;2024-01-15T03:34:03;11.93;;;6.10;;
15958;SDS011;8078;47.822;9.402;2024-01-15T03:36:29;10.30;;;5.83;;
15958;SDS011;8078;47.822;9.402;2024-01-15T03:38:54;9.07;;;5.07;;
15958;SDS011;8078;47.822;9.402;2024-01-15T03:41:20;10.33;;;5.33;;
15958;SDS011;8078;47.822;9.402;2024-01-15T03:43:45;10.57;;;5.00;;
15958;SDS011;8078;47.822;9.402;2024-01-15T03:46:11;10.80;;;5.40;;
15958;SDS011;8078;47.822;9.402;2024-01-15T03:48:37;8.87;;;4.73;;
15958;SDS011;8078;47.822;9.402;2024-01-15T03:51:03;8.60;;;5.00;;
15958;SDS011;8078;47.822;9.402;2024-01-15T03:53:29;6.73;;;4.70;;
15958;SDS011;8078;47.822;9.402;2024-01-15T03:55:54;9.20;;;5.40;;
15958;SDS011;8078;47.822;9.402;2024-01-15T03:58:20;12.00;;;5.67;;
15958;SDS011;8078;47.822;9.402;2024-01-15T04:00:45;9.90;;;5.70;;
15958;SDS011;8078;47.822;9.402;2024-01-15T04:03:11;11.53;;;6.43;;
15958;SDS011;8078;47.822;9.402;2024-01-15T04:05:36;8.80;;;5.30;;
15958;SDS011;8078;47.822;9.402;2024-01-15T04:08:03;11.27;;;5.87;;
15958;SDS011;8078;47.822;9.402;2024-01-15T04:10:29;10.80;;;6.97;;
15958;SDS011;8078;47.822;9.402;2024-01-15T04:12:55;11.77;;;5.90;;
15958;SDS011;8078;47.822;9.402;2024-01-15T04:15:20;10.03;;;5.20;;
15958;SDS011;8078;47.822;9.402;2024-01-15T04:17:46;9.70;;;5.40;;
15958;SDS011;8078;47.822;9.402;2024-01-15T04:20:12;10.73;;;5.47;;
15958;SDS011;8078;47.822;9.402;2024-01-15T04:22:37;6.47;;;5.13;;
15958;SDS011;8078;47.822;9.402;2024-01-15T04:25:03;8.67;;;5.03;;
15958;SDS011;8078;47.822;9.402;2024-01-15T04:27:29;9.50;;;5.00;;
15958;SDS011;8078;47.822;9.402;2024-01-15T04:29:54;12.23;;;4.83;;
15958;SDS011;8078;47.822;9.402;2024-01-15T04:32:20;8.83;;;5.27;;
15958;SDS011;8078;47.822;9.402;2024-01-15T04:34:45;9.17;;;5.17;;
15958;SDS011;8078;47.822;9.402;2024-01-15T04:37:11;9.10;;;5.30;;
15958;SDS011;8078;47.822;9.402;2024-01-15T04:39:38;9.17;;;5.13;;
15958;SDS011;8078;47.822;9.402;2024-01-15T04:42:03;8.47;;;4.80;;
15958;SDS011;8078;47.822;9.402;2024-01-15T04:44:29;9.57;;;4.50;;
15958;SDS011;8078;47.822;9.402;2024-01-15T04:46:55;7.60;;;4.40;;
15958;SDS011;8078;47.822;9.402;2024-01-15T04:49:20;9.97;;;5.17;;
15958;SDS011;8078;47.822;9.402;2024-01-15T04:51:46;8.27;;;5.20;;
15958;SDS011;8078;47.822;9.402;2024-01-15T04:54:11;8.70;;;5.10;;
15958;SDS011;8078;47.822;9.402;2024-01-15T04:56:37;8.23;;;5.20;;
15958;SDS011;8078;47.822;9.402;2024-01-15T04:59:03;10.40;;;5.13;;
15958;SDS011;8078;47.822;9.402;2024-01-15T05:01:32;9.53;;;5.27;;
15958;SDS011;8078;47.822;9.402;2024-01-15T05:03:58;11.80;;;6.23;;
15958;SDS011;8078;47.822;9.402;2024-01-15T05:06:24;9.67;;;5.10;;
15958;SDS011;8078;47.822;9.402;2024-01-15T05:08:51;9.47;;;4.77;;
15958;SDS011;8078;47.822;9.402;2024-01-15T05:11:16;10.83;;;5.57;;
15958;SDS011;8078;47.822;9.402;2024-01-15T05:13:42;10.10;;;5.67;;
15958;SDS011;8078;47.822;9.402;2024-01-15T05:16:08;10.67;;;5.87;;
15958;SDS011;8078;47.822;9.402;2024-01-15T05:18:33;12.10;;;6.17;;
15958;SDS011;8078;47.822;9.402;2024-01-15T05:20:59;17.80;;;6.20;;
15958;SDS011;8078;47.822;9.402;2024-01-15T05:23:24;10.80;;;6.03;;
15958;SDS011;8078;47.822;9.402;2024-01-15T05:25:50;11.50;;;5.57;;
15958;SDS011;8078;47.822;9.402;2024-01-15T05:28:15;13.23;;;6.77;;
15958;SDS011;8078;47.822;9.402;2024-01-15T05:30:41;14.80;;;7.67;;
15958;SDS011;8078;47.822;9.402;2024-01-15T05:33:06;14.27;;;7.50;;
15958;SDS011;8078;47.822;9.402;2024-01-15T05:35:32;14.33;;;7.30;;
15958;SDS011;8078;47.822;9.402;2024-01-15T05:37:58;11.50;;;6.57;;
15958;SDS011;8078;47.822;9.402;2024-01-15T05:40:24;14.70;;;7.63;;
15958;SDS011;8078;47.822;9.402;2024-01-15T05:42:50;13.47;;;7.70;;
15958;SDS011;8078;47.822;9.402;2024-01-15T05:45:15;16.17;;;8.00;;
15958;SDS011;8078;47.822;9.402;2024-01-15T05:47:41;12.93;;;7.40;;
15958;SDS011;8078;47.822;9.402;2024-01-15T05:50:06;13.63;;;7.17;;
15958;SDS011;8078;47.822;9.402;2024-01-15T05:52:33;12.90;;;7.67;;
15958;SDS011;8078;47.822;9.402;2024-01-15T05:54:58;13.23;;;7.17;;
15958;SDS011;8078;47.822;9.402;2024-01-15T05:57:24;20.93;;;9.33;;
15958;SDS011;8078;47.822;9.402;2024-01-15T05:59:50;14.47;;;8.17;;
15958;SDS011;8078;47.822;9.402;2024-01-15T06:02:15;13.97;;;7.80;;
15958;SDS011;8078;47.822;9.402;2024-01-15T06:04:41;16.23;;;7.83;;
15958;SDS011;8078;47.822;9.402;2024-01-15T06:07:06;20.40;;;8.67;;
15958;SDS011;8078;47.822;9.402;2024-01-15T06:09:32;17.40;;;8.63;;
15958;SDS011;8078;47.822;9.402;2024-01-15T06:11:57;21.30;;;10.60;;
15958;SDS011;8078;47.822;9.402;2024-01-15T06:14:23;19.00;;;8.43;;
15958;SDS011;8078;47.822;9.402;2024-01-15T06:16:49;15.37;;;8.10;;
15958;SDS011;8078;47.822;9.402;2024-01-15T06:19:14;15.07;;;7.83;;
15958;SDS011;8078;47.822;9.402;2024-01-15T06:21:40;15.47;;;8.70;;
15958;SDS011;8078;47.822;9.402;2024-01-15T06:24:06;19.23;;;8.33;;
15958;SDS011;8078;47.822;9.402;2024-01-15T06:26:31;17.33;;;9.13;;
15958;SDS011;8078;47.822;9.402;2024-01-15T06:28:57;19.00;;;9.50;;
15958;SDS011;8078;47.822;9.402;2024-01-15T06:31:22;17.03;;;9.23;;
15958;SDS011;8078;47.822;9.402;2024-01-15T06:33:48;19.33;;;9.63;;
15958;SDS011;8078;47.822;9.402;2024-01-15T06:36:14;18.53;;;8.83;;
15958;SDS011;8078;47.822;9.402;2024-01-15T06:38:41;19.07;;;8.30;;
15958;SDS011;8078;47.822;9.402;2024-01-15T06:41:08;21.73;;;9.37;;
15958;SDS011;8078;47.822;9.402;2024-01-15T06:43:33;18.70;;;8.87;;
15958;SDS011;8078;47.822;9.402;2024-01-15T06:45:59;19.40;;;9.37;;
15958;SDS011;8078;47.822;9.402;2024-01-15T06:48:24;23.57;;;11.57;;
15958;SDS011;8078;47.822;9.402;2024-01-15T06:50:50;20.47;;;9.00;;
15958;SDS011;8078;47.822;9.402;2024-01-15T06:53:15;18.63;;;9.13;;
15958;SDS011;8078;47.822;9.402;2024-01-15T06:55:41;23.63;;;9.83;;
15958;SDS011;8078;47.822;9.402;2024-01-15T06:58:07;22.20;;;9.57;;
15958;SDS011;8078;47.822;9.402;2024-01-15T07:00:32;18.27;;;8.43;;
15958;SDS011;8078;47.822;9.402;2024-01-15T07:02:58;16.53;;;8.70;;
15958;SDS011;8078;47.822;9.402;2024-01-15T07:05:24;20.47;;;8.77;;
15958;SDS011;8078;47.822;9.402;2024-01-15T07:07:49;20.70;;;9.00;;
15958;SDS011;8078;47.822;9.402;2024-01-15T07:10:15;18.00;;;8.47;;
15958;SDS011;8078;47.822;9.402;2024-01-15T07:12:42;20.77;;;7.90;;
15958;SDS011;8078;47.822;9.402;2024-01-15T07:15:08;16.73;;;8.93;;
15958;SDS011;8078;47.822;9.402;2024-01-15T07:17:34;17.07;;;8.50;;
15958;SDS011;8078;47.822;9.402;2024-01-15T07:19:59;21.07;;;9.67;;
15958;SDS011;8078;47.822;9.402;2024-01-15T07:22:25;20.43;;;9.63;;
15958;SDS011;8078;47.822;9.402;2024-01-15T07:24:50;17.90;;;8.93;;
15958;SDS011;8078;47.822;9.402;2024-01-15T07:27:16;24.33;;;10.40;;
15958;SDS011;8078;47.822;9.402;2024-01-15T07:29:42;21.87;;;9.30;;
15958;SDS011;8078;47.822;9.402;2024-01-15T07:32:08;21.77;;;8.60;;
15958;SDS011;8078;47.822;9.402;2024-01-15T07:34:34;17.57;;;9.00;;
15958;SDS011;8078;47.822;9.402;2024-01-15T07:36:59;19.60;;;9.00;;
15958;SDS011;8078;47.822;9.402;2024-01-15T07:39:25;15.53;;;7.37;;
15958;SDS011;8078;47.822;9.402;2024-01-15T07:41:51;19.67;;;9.23;;
15958;SDS011;8078;47.822;9.402;2024-01-15T07:44:17;15.27;;;8.17;;
15958;SDS011;8078;47.822;9.402;2024-01-15T07:46:46;20.37;;;10.03;;
15958;SDS011;8078;47.822;9.402;2024-01-15T07:49:12;20.07;;;10.00;;
15958;SDS011;8078;47.822;9.402;2024-01-15T07:51:38;20.17;;;9.87;;
15958;SDS011;8078;47.822;9.402;2024-01-15T07:54:05;21.10;;;9.83;;
15958;SDS011;8078;47.822;9.402;2024-01-15T07:56:31;20.57;;;9.83;;
15958;SDS011;8078;47.822;9.402;2024-01-15T07:58:57;24.60;;;10.20;;
15958;SDS011;8078;47.822;9.402;2024-01-15T08:01:22;23.67;;;9.87;;
15958;SDS011;8078;47.822;9.402;2024-01-15T08:03:49;20.37;;;8.57;;
15958;SDS011;8078;47.822;9.402;2024-01-15T08:06:15;18.73;;;9.33;;
15958;SDS011;8078;47.822;9.402;2024-01-15T08:08:41;22.70;;;8.50;;
15958;SDS011;8078;47.822;9.402;2024-01-15T08:11:06;16.73;;;8.50;;
15958;SDS011;8078;47.822;9.402;2024-01-15T08:13:32;17.17;;;9.13;;
15958;SDS011;8078;47.822;9.402;2024-01-15T08:15:57;25.10;;;10.40;;
15958;SDS011;8078;47.822;9.402;2024-01-15T08:18:23;21.20;;;10.57;;
15958;SDS011;8078;47.822;9.402;2024-01-15T08:20:49;21.57;;;9.37;;
15958;SDS011;8078;47.822;9.402;2024-01-15T08:23:16;24.33;;;10.43;;
15958;SDS011;8078;47.822;9.402;2024-01-15T08:25:42;19.73;;;9.53;;
15958;SDS011;8078;47.822;9.402;2024-01-15T08:28:07;18.90;;;8.77;;
15958;SDS011;8078;47.822;9.402;2024-01-15T08:30:33;21.70;;;8.83;;
15958;SDS011;8078;47.822;9.402;2024-01-15T08:32:59;22.10;;;9.23;;
15958;SDS011;8078;47.822;9.402;2024-01-15T08:35:25;21.23;;;9.50;;
15958;SDS011;8078;47.822;9.402;2024-01-15T08:37:51;21.17;;;9.33;;
15958;SDS011;8078;47.822;9.402;2024-01-15T08:40:18;22.13;;;9.47;;
15958;SDS011;8078;47.822;9.402;2024-01-15T08:42:43;19.70;;;9.13;;
15958;SDS011;8078;47.822;9.402;2024-01-15T08:45:10;24.63;;;9.80;;
15958;SDS011;8078;47.822;9.402;2024-01-15T08:47:36;16.63;;;9.27;;
15958;SDS011;8078;47.822;9.402;2024-01-15T08:50:02;22.23;;;9.73;;
15958;SDS011;8078;47.822;9.402;2024-01-15T08:52:28;16.20;;;7.87;;
15958;SDS011;8078;47.822;9.402;2024-01-15T08:54:54;17.13;;;8.17;;
15958;SDS011;8078;47.822;9.402;2024-01-15T08:57:21;16.17;;;7.53;;
15958;SDS011;8078;47.822;9.402;2024-01-15T08:59:47;16.23;;;8.17;;
15958;SDS011;8078;47.822;9.402;2024-01-15T09:02:12;13.77;;;7.33;;
15958;SDS011;8078;47.822;9.402;2024-01-15T09:04:38;13.63;;;8.13;;
15958;SDS011;8078;47.822;9.402;2024-01-15T09:07:04;15.97;;;7.43;;
15958;SDS011;8078;47.822;9.402;2024-01-15T09:09:29;15.10;;;7.93;;
15958;SDS011;8078;47.822;9.402;2024-01-15T09:11:55;12.83;;;6.93;;
15958;SDS011;8078;47.822;9.402;2024-01-15T09:14:21;11.47;;;6.13;;
15958;SDS011;8078;47.822;9.402;2024-01-15T09:16:47;9.73;;;6.53;;
15958;SDS011;8078;47.822;9.402;2024-01-15T09:19:13;11.30;;;7.00;;
15958;SDS011;8078;47.822;9.402;2024-01-15T09:21:38;12.77;;;6.50;;
15958;SDS011;8078;47.822;9.402;2024-01-15T09:24:05;15.30;;;7.77;;
15958;SDS011;8078;47.822;9.402;2024-01-15T09:26:30;16.17;;;7.00;;
15958;SDS011;8078;47.822;9.402;2024-01-15T09:28:56;15.77;;;7.00;;
15958;SDS011;8078;47.822;9.402;2024-01-15T09:31:22;13.07;;;6.20;;
15958;SDS011;8078;47.822;9.402;2024-01-15T09:33:49;13.03;;;7.03;;
15958;SDS011;8078;47.822;9.402;2024-01-15T09:36:17;18.37;;;8.03;;
15958;SDS011;8078;47.822;9.402;2024-01-15T09:38:44;14.77;;;6.80;;
15958;SDS011;8078;47.822;9.402;2024-01-15T09:41:10;14.60;;;8.40;;
15958;SDS011;8078;47.822;9.402;2024-01-15T09:43:36;13.33;;;7.63;;
15958;SDS011;8078;47.822;9.402;2024-01-15T09:46:03;14.37;;;7.70;;
15958;SDS011;8078;47.822;9.402;2024-01-15T09:48:29;15.20;;;8.63;;
15958;SDS011;8078;47.822;9.402;2024-01-15T09:50:54;21.37;;;10.03;;
15958;SDS011;8078;47.822;9.402;2024-01-15T09:53:22;23.27;;;10.47;;
15958;SDS011;8078;47.822;9.402;2024-01-15T09:55:50;22.13;;;11.23;;
15958;SDS011;8078;47.822;9.402;2024-01-15T09:58:15;22.30;;;10.60;;
15958;SDS011;8078;47.822;9.402;2024-01-15T10:00:41;23.30;;;10.33;;
15958;SDS011;8078;47.822;9.402;2024-01-15T10:03:09;21.53;;;10.00;;
15958;SDS011;8078;47.822;9.402;2024-01-15T10:05:36;26.33;;;10.90;;
15958;SDS011;8078;47.822;9.402;2024-01-15T10:08:02;23.13;;;10.77;;
15958;SDS011;8078;47.822;9.402;2024-01-15T10:10:29;24.63;;;10.93;;
15958;SDS011;8078;47.822;9.402;2024-01-15T10:12:55;21.53;;;10.87;;
15958;SDS011;8078;47.822;9.402;2024-01-15T10:15:25;21.63;;;11.77;;
15958;SDS011;8078;47.822;9.402;2024-01-15T10:17:51;28.53;;;11.30;;
15958;SDS011;8078;47.822;9.402;2024-01-15T10:20:17;22.57;;;10.83;;
15958;SDS011;8078;47.822;9.402;2024-01-15T10:22:43;35.27;;;12.53;;
15958;SDS011;8078;47.822;9.402;2024-01-15T10:25:12;30.23;;;12.90;;
15958;SDS011;8078;47.822;9.402;2024-01-15T10:27:39;26.40;;;13.53;;
15958;SDS011;8078;47.822;9.402;2024-01-15T10:30:07;24.23;;;11.47;;
15958;SDS011;8078;47.822;9.402;2024-01-15T10:32:33;31.57;;;12.17;;
15958;SDS011;8078;47.822;9.402;2024-01-15T10:34:59;24.97;;;11.97;;
15958;SDS011;8078;47.822;9.402;2024-01-15T10:37:24;26.03;;;11.87;;
15958;SDS011;8078;47.822;9.402;2024-01-15T10:39:52;26.10;;;13.20;;
15958;SDS011;8078;47.822;9.402;2024-01-15T10:42:17;25.93;;;11.80;;
15958;SDS011;8078;47.822;9.402;2024-01-15T10:44:43;21.30;;;11.93;;
15958;SDS011;8078;47.822;9.402;2024-01-15T10:47:12;24.90;;;10.93;;
15958;SDS011;8078;47.822;9.402;2024-01-15T10:49:38;25.97;;;13.13;;
15958;SDS011;8078;47.822;9.402;2024-01-15T10:52:04;23.83;;;11.50;;
15958;SDS011;8078;47.822;9.402;2024-01-15T10:54:30;26.97;;;12.07;;
15958;SDS011;8078;47.822;9.402;2024-01-15T10:56:57;23.97;;;11.43;;
15958;SDS011;8078;47.822;9.402;2024-01-15T10:59:23;30.10;;;12.80;;
15958;SDS011;8078;47.822;9.402;2024-01-15T11:01:50;23.50;;;10.17;;
15958;SDS011;8078;47.822;9.402;2024-01-15T11:04:19;24.97;;;10.33;;
15958;SDS011;8078;47.822;9.402;2024-01-15T11:06:47;25.53;;;9.73;;
15958;SDS011;8078;47.822;9.402;2024-01-15T11:09:17;23.73;;;12.73;;
15958;SDS011;8078;47.822;9.402;2024-01-15T11:11:44;24.17;;;11.10;;
15958;SDS011;8078;47.822;9.402;2024-01-15T11:14:11;21.50;;;11.37;;
15958;SDS011;8078;47.822;9.402;2024-01-15T11:17:08;20.63;;;10.27;;
15958;SDS011;8078;47.822;9.402;2024-01-15T11:19:35;19.73;;;10.43;;
15958;SDS011;8078;47.822;9.402;2024-01-15T11:22:08;20.63;;;10.03;;
15958;SDS011;8078;47.822;9.402;2024-01-15T11:24:37;24.60;;;10.57;;
15958;SDS011;8078;47.822;9.402;2024-01-15T11:27:04;21.33;;;9.87;;
15958;SDS011;8078;47.822;9.402;2024-01-15T11:29:31;19.97;;;11.17;;
15958;SDS011;8078;47.822;9.402;2024-01-15T11:32:09;17.03;;;9.17;;
15958;SDS011;8078;47.822;9.402;2024-01-15T11:35:08;17.60;;;8.73;;
15958;SDS011;8078;47.822;9.402;2024-01-15T11:37:28;17.47;;;9.47;;
15958;SDS011;8078;47.822;9.402;2024-01-15T11:40:14;15.47;;;8.53;;
15958;SDS011;8078;47.822;9.402;2024-01-15T11:42:46;15.40;;;8.63;;
15958;SDS011;8078;47.822;9.402;2024-01-15T11:45:13;17.60;;;10.17;;
15958;SDS011;8078;47.822;9.402;2024-01-15T11:50:13;15.83;;;9.80;;
15958;SDS011;8078;47.822;9.402;2024-01-15T11:52:39;18.13;;;8.63;;
15958;SDS011;8078;47.822;9.402;2024-01-15T11:55:36;15.33;;;8.40;;
15958;SDS011;8078;47.822;9.402;2024-01-15T11:58:05;16.57;;;9.47;;
15958;SDS011;8078;47.822;9.402;2024-01-15T12:00:34;11.73;;;7.37;;
15958;SDS011;8078;47.822;9.402;2024-01-15T12:03:04;12.53;;;7.00;;
15958;SDS011;8078;47.822;9.402;2024-01-15T12:05:30;13.83;;;7.77;;
15958;SDS011;8078;47.822;9.402;2024-01-15T12:07:55;15.80;;;9.67;;
15958;SDS011;8078;47.822;9.402;2024-01-15T12:10:21;13.50;;;8.70;;
15958;SDS011;8078;47.822;9.402;2024-01-15T12:15:22;15.27;;;8.80;;
15958;SDS011;8078;47.822;9.402;2024-01-15T12:17:48;13.60;;;7.77;;
15958;SDS011;8078;47.822;9.402;2024-01-15T12:20:14;11.77;;;8.10;;
15958;SDS011;8078;47.822;9.402;2024-01-15T12:22:41;15.90;;;8.43;;
15958;SDS011;8078;47.822;9.402;2024-01-15T12:25:06;14.17;;;8.20;;
15958;SDS011;8078;47.822;9.402;2024-01-15T12:27:32;14.73;;;7.93;;
15958;SDS011;8078;47.822;9.402;2024-01-15T12:29:58;14.53;;;8.87;;
15958;SDS011;8078;47.822;9.402;2024-01-15T12:32:24;15.40;;;9.30;;
15958;SDS011;8078;47.822;9.402;2024-01-15T12:34:50;13.47;;;8.20;;
15958;SDS011;8078;47.822;9.402;2024-01-15T12:37:19;14.47;;;9.10;;
15958;SDS011;8078;47.822;9.402;2024-01-15T12:39:45;15.37;;;8.43;;
15958;SDS011;8078;47.822;9.402;2024-01-15T12:42:11;13.23;;;8.20;;
15958;SDS011;8078;47.822;9.402;2024-01-15T12:44:37;16.73;;;7.90;;
15958;SDS011;8078;47.822;9.402;2024-01-15T12:47:04;14.47;;;7.97;;
15958;SDS011;8078;47.822;9.402;2024-01-15T12:49:30;17.53;;;8.40;;
15958;SDS011;8078;47.822;9.402;2024-01-15T12:51:56;13.30;;;8.10;;
15958;SDS011;8078;47.822;9.402;2024-01-15T12:54:22;15.30;;;8.77;;
15958;SDS011;8078;47.822;9.402;2024-01-15T12:56:51;12.47;;;8.53;;
15958;SDS011;8078;47.822;9.402;2024-01-15T12:59:17;15.80;;;7.80;;
15958;SDS011;8078;47.822;9.402;2024-01-15T13:01:43;11.70;;;7.87;;
15958;SDS011;8078;47.822;9.402;2024-01-15T13:04:10;12.33;;;7.07;;
15958;SDS011;8078;47.822;9.402;2024-01-15T13:06:35;12.77;;;7.33;;
15958;SDS011;8078;47.822;9.402;2024-01-15T13:09:02;11.47;;;7.10;;
15958;SDS011;8078;47.822;9.402;2024-01-15T13:11:30;11.30;;;6.90;;
15958;SDS011;8078;47.822;9.402;2024-01-15T13:13:56;11.90;;;8.07;;
15958;SDS011;8078;47.822;9.402;2024-01-15T13:16:22;11.30;;;7.30;;
15958;SDS011;8078;47.822;9.402;2024-01-15T13:18:48;10.13;;;7.03;;
15958;SDS011;8078;47.822;9.402;2024-01-15T13:21:14;12.97;;;7.97;;
15958;SDS011;8078;47.822;9.402;2024-01-15T13:23:40;11.13;;;7.43;;
15958;SDS011;8078;47.822;9.402;2024-01-15T13:26:06;8.40;;;6.00;;
15958;SDS011;8078;47.822;9.402;2024-01-15T13:28:32;9.47;;;5.83;;
15958;SDS011;8078;47.822;9.402;2024-01-15T13:30:57;12.47;;;6.80;;
15958;SDS011;8078;47.822;9.402;2024-01-15T13:33:23;12.60;;;7.17;;
15958;SDS011;8078;47.822;9.402;2024-01-15T13:35:49;8.37;;;6.37;;
15958;SDS011;8078;47.822;9.402;2024-01-15T13:38:15;11.50;;;6.87;;
15958;SDS011;8078;47.822;9.402;2024-01-15T13:40:41;8.97;;;6.30;;
15958;SDS011;8078;47.822;9.402;2024-01-15T13:43:06;12.33;;;6.87;;
15958;SDS011;8078;47.822;9.402;2024-01-15T13:45:33;10.27;;;7.07;;
15958;SDS011;8078;47.822;9.402;2024-01-15T13:48:00;10.13;;;6.83;;
15958;SDS011;8078;47.822;9.402;2024-01-15T13:50:26;8.73;;;5.97;;
15958;SDS011;8078;47.822;9.402;2024-01-15T13:52:52;12.93;;;6.83;;
15958;SDS011;8078;47.822;9.402;2024-01-15T13:55:19;12.20;;;6.93;;
15958;SDS011;8078;47.822;9.402;2024-01-15T13:57:45;8.40;;;6.27;;
15958;SDS011;8078;47.822;9.402;2024-01-15T14:00:10;9.60;;;6.63;;
15958;SDS011;8078;47.822;9.402;2024-01-15T14:02:37;10.53;;;6.73;;
15958;SDS011;8078;47.822;9.402;2024-01-15T14:05:02;10.27;;;6.73;;
15958;SDS011;8078;47.822;9.402;2024-01-15T14:07:28;8.60;;;6.50;;
15958;SDS011;8078;47.822;9.402;2024-01-15T14:09:54;9.37;;;6.87;;
15958;SDS011;8078;47.822;9.402;2024-01-15T14:12:19;9.40;;;6.17;;
15958;SDS011;8078;47.822;9.402;2024-01-15T14:14:45;12.83;;;7.33;;
15958;SDS011;8078;47.822;9.402;2024-01-15T14:17:10;8.27;;;6.13;;
15958;SDS011;8078;47.822;9.402;2024-01-15T14:19:36;9.73;;;7.03;;
15958;SDS011;8078;47.822;9.402;2024-01-15T14:22:01;9.47;;;5.90;;
15958;SDS011;8078;47.822;9.402;2024-01-15T14:24:28;9.80;;;5.90;;
15958;SDS011;8078;47.822;9.402;2024-01-15T14:26:53;10.23;;;7.27;;
15958;SDS011;8078;47.822;9.402;2024-01-15T14:29:19;12.07;;;7.50;;
15958;SDS011;8078;47.822;9.402;2024-01-15T14:31:47;10.53;;;7.07;;
15958;SDS011;8078;47.822;9.402;2024-01-15T14:34:12;8.33;;;5.50;;
15958;SDS011;8078;47.822;9.402;2024-01-15T14:36:38;12.13;;;7.00;;
15958;SDS011;8078;47.822;9.402;2024-01-15T14:39:04;12.17;;;6.47;;
15958;SDS011;8078;47.822;9.402;2024-01-15T14:41:29;10.23;;;6.77;;
15958;SDS011;8078;47.822;9.402;2024-01-15T14:43:55;8.17;;;6.37;;
15958;SDS011;8078;47.822;9.402;2024-01-15T14:46:22;10.23;;;5.57;;
15958;SDS011;8078;47.822;9.402;2024-01-15T14:48:47;11.07;;;7.17;;